Time;durP1;ratioP1;P1;durP2;ratioP2;P2;SDS_P1;SDS_P2;PMS_P1;PMS_P2;Temp;Humidity;BMP_temperature;BMP_pressure;BME280_temperature;BME280_humidity;BME280_pressure;Samples;Min_cycle;Max_cycle;Signal;HPM_P1;HPM_P2
2020/12/04 00:01:03;;;;;;;14.23;6.90;;;;;;;-3.32;92.04;101704.03;1774786;80;21220;-56
2020/12/04 00:03:31;;;;;;;13.58;7.50;;;;;;;-3.35;92.21;101701.59;1777857;79;20990;-56
2020/12/04 00:05:59;;;;;;;15.13;7.70;;;;;;;-3.36;92.34;101701.22;1783733;80;21041;-57
2020/12/04 00:08:28;;;;;;;13.88;7.95;;;;;;;-3.36;92.50;101695.29;1791858;78;21184;-56
2020/12/04 00:10:56;;;;;;;16.40;8.78;;;;;;;-3.38;92.50;101710.63;1786692;80;21232;-56
2020/12/04 00:13:24;;;;;;;15.10;7.40;;;;;;;-3.39;92.63;101712.80;1785207;78;21208;-57
2020/12/04 00:15:52;;;;;;;13.13;6.87;;;;;;;-3.40;92.63;101718.80;1787571;79;21120;-57
2020/12/04 00:18:20;;;;;;;16.48;7.45;;;;;;;-3.41;92.58;101714.56;1782889;78;20915;-56
2020/12/04 00:20:49;;;;;;;15.65;6.42;;;;;;;-3.42;92.64;101707.80;1782769;80;21160;-57
2020/12/04 00:23:17;;;;;;;12.82;6.55;;;;;;;-3.41;92.67;101713.28;1785407;78;21120;-56
2020/12/04 00:25:45;;;;;;;13.20;7.37;;;;;;;-3.42;92.93;101715.01;1782046;80;21433;-56
2020/12/04 00:28:13;;;;;;;14.73;7.33;;;;;;;-3.42;93.02;101703.98;1787266;78;21057;-57
2020/12/04 00:30:42;;;;;;;15.18;6.70;;;;;;;-3.41;93.11;101718.37;1782763;80;21084;-56
2020/12/04 00:33:10;;;;;;;15.13;7.00;;;;;;;-3.41;93.14;101713.28;1789714;78;21140;-56
2020/12/04 00:35:38;;;;;;;16.48;6.67;;;;;;;-3.43;93.21;101713.80;1777646;79;21117;-57
2020/12/04 00:38:06;;;;;;;16.10;7.25;;;;;;;-3.42;93.36;101709.08;1788821;80;21204;-57
2020/12/04 00:40:34;;;;;;;14.43;6.78;;;;;;;-3.42;93.38;101706.53;1772384;80;21030;-57
2020/12/04 00:43:02;;;;;;;16.50;7.30;;;;;;;-3.42;93.35;101718.00;1789898;78;21023;-56
2020/12/04 00:45:31;;;;;;;12.25;6.83;;;;;;;-3.44;93.35;101712.15;1787716;80;21073;-56
2020/12/04 00:47:59;;;;;;;11.95;6.35;;;;;;;-3.48;93.56;101705.05;1777944;79;21068;-55
2020/12/04 00:50:28;;;;;;;12.60;7.08;;;;;;;-3.49;93.74;101707.64;1774624;80;21164;-56
2020/12/04 00:52:58;;;;;;;12.25;6.45;;;;;;;-3.52;93.88;101712.88;1788268;80;21097;-56
2020/12/04 00:55:26;;;;;;;12.82;6.97;;;;;;;-3.55;93.83;101709.99;1784432;79;21176;-56
2020/12/04 00:57:55;;;;;;;12.60;6.60;;;;;;;-3.61;93.90;101710.20;1783902;80;20974;-56
2020/12/04 01:00:24;;;;;;;11.63;6.42;;;;;;;-3.64;93.70;101707.77;1786317;80;21176;-56
2020/12/04 01:02:52;;;;;;;13.03;7.00;;;;;;;-3.68;93.96;101705.77;1784817;78;21199;-56
2020/12/04 01:05:20;;;;;;;12.03;6.33;;;;;;;-3.70;94.22;101705.02;1785475;79;21161;-56
2020/12/04 01:07:48;;;;;;;23.12;10.15;;;;;;;-3.71;94.30;101713.55;1782248;78;21145;-56
2020/12/04 01:10:16;;;;;;;22.48;10.05;;;;;;;-3.72;93.91;101713.59;1785835;80;21021;-55
2020/12/04 01:12:46;;;;;;;17.55;9.40;;;;;;;-3.77;94.14;101717.58;1783557;78;21199;-58
2020/12/04 01:15:14;;;;;;;18.30;9.18;;;;;;;-3.77;94.37;101717.58;1786460;80;21426;-58
2020/12/04 01:17:42;;;;;;;13.53;6.75;;;;;;;-3.77;94.19;101723.12;1785872;78;21077;-58
2020/12/04 01:20:10;;;;;;;14.68;6.50;;;;;;;-3.80;94.25;101716.41;1777882;79;21097;-57
2020/12/04 01:22:39;;;;;;;12.40;6.92;;;;;;;-3.81;94.28;101722.40;1771763;80;21073;-57
2020/12/04 01:25:07;;;;;;;13.18;6.12;;;;;;;-3.83;94.25;101725.88;1786432;80;21150;-55
2020/12/04 01:27:36;;;;;;;12.28;5.85;;;;;;;-3.85;94.42;101720.85;1787335;78;21194;-58
2020/12/04 01:30:04;;;;;;;12.25;6.12;;;;;;;-3.86;94.42;101720.89;1777925;80;21184;-58
2020/12/04 01:32:32;;;;;;;12.68;6.33;;;;;;;-3.88;94.78;101719.68;1787356;78;21128;-57
2020/12/04 01:35:00;;;;;;;15.23;6.30;;;;;;;-3.86;94.89;101728.11;1785961;79;21018;-58
2020/12/04 01:37:28;;;;;;;10.38;5.70;;;;;;;-3.85;94.77;101716.20;1776217;78;21172;-56
2020/12/04 01:39:57;;;;;;;12.63;5.78;;;;;;;-3.88;94.65;101715.03;1801460;78;21190;-56
2020/12/04 01:42:25;;;;;;;12.30;6.35;;;;;;;-3.92;94.78;101719.41;1810512;77;21138;-56
2020/12/04 01:44:53;;;;;;;13.58;5.45;;;;;;;-3.95;95.02;101713.96;1807961;78;21156;-56
2020/12/04 01:47:22;;;;;;;8.83;5.35;;;;;;;-3.96;95.21;101715.30;1800376;77;20990;-55
2020/12/04 01:49:51;;;;;;;12.25;6.20;;;;;;;-3.98;95.13;101711.96;1811832;78;21137;-55
2020/12/04 01:52:19;;;;;;;11.18;5.03;;;;;;;-4.02;95.27;101712.95;1795680;78;21356;-57
2020/12/04 01:54:48;;;;;;;10.70;5.15;;;;;;;-4.05;95.31;101711.78;1809181;78;21025;-56
2020/12/04 01:57:16;;;;;;;10.40;5.22;;;;;;;-4.10;95.26;101713.67;1810378;77;21192;-55
2020/12/04 01:59:44;;;;;;;12.88;6.00;;;;;;;-4.13;95.40;101717.59;1773849;78;21013;-55
2020/12/04 02:02:22;;;;;;;12.35;5.42;;;;;;;-4.15;95.68;101721.48;1817651;77;21021;-56
2020/12/04 02:04:51;;;;;;;12.28;5.20;;;;;;;-4.17;95.83;101716.45;1814993;78;21355;-56
2020/12/04 02:07:30;;;;;;;9.55;5.03;;;;;;;-4.17;95.88;101715.59;1813452;78;21153;-56
2020/12/04 02:10:02;;;;;;;11.15;5.35;;;;;;;-4.18;96.04;101715.21;1779086;80;21066;-56
2020/12/04 02:12:30;;;;;;;11.65;5.33;;;;;;;-4.18;96.16;101716.48;1786355;79;21089;-56
2020/12/04 02:14:59;;;;;;;12.40;6.00;;;;;;;-4.21;96.26;101709.77;1787782;80;21503;-56
2020/12/04 02:17:32;;;;;;;10.80;4.95;;;;;;;-4.22;96.39;101717.47;1778730;78;21267;-56
2020/12/04 02:20:00;;;;;;;14.80;6.20;;;;;;;-4.23;96.54;101716.65;1788515;80;20997;-56
2020/12/04 02:22:35;;;;;;;10.25;5.25;;;;;;;-4.24;96.56;101716.27;1790245;80;21221;-57
2020/12/04 02:25:06;;;;;;;15.15;6.22;;;;;;;-4.25;96.68;101715.85;1786713;79;21527;-57
2020/12/04 02:27:37;;;;;;;12.33;5.90;;;;;;;-4.22;96.93;101718.30;1786628;79;21657;-56
2020/12/04 02:30:05;;;;;;;13.10;5.97;;;;;;;-4.20;97.07;101709.36;1785027;80;22314;-56
2020/12/04 02:32:33;;;;;;;11.57;5.95;;;;;;;-4.18;97.17;101713.49;1786585;78;21104;-56
2020/12/04 02:35:01;;;;;;;15.98;6.40;;;;;;;-4.16;97.24;101710.91;1800374;78;21035;-57
2020/12/04 02:37:29;;;;;;;14.33;6.08;;;;;;;-4.14;97.27;101708.30;1804625;77;21061;-56
2020/12/04 02:39:58;;;;;;;12.05;6.05;;;;;;;-4.14;97.15;101710.40;1813919;78;21100;-57
2020/12/04 02:42:26;;;;;;;16.57;6.62;;;;;;;-4.16;97.03;101713.45;1813046;77;21248;-58
2020/12/04 02:44:54;;;;;;;11.22;5.55;;;;;;;-4.16;96.96;101717.28;1816951;78;21159;-56
2020/12/04 02:47:28;;;;;;;10.53;5.67;;;;;;;-4.18;96.74;101699.94;1777075;78;21192;-55
2020/12/04 02:49:56;;;;;;;11.43;5.85;;;;;;;-4.21;96.63;101712.31;1794896;79;21130;-55
2020/12/04 02:52:24;;;;;;;13.00;5.53;;;;;;;-4.24;96.68;101726.45;1789006;79;21299;-56
2020/12/04 02:54:52;;;;;;;16.35;6.45;;;;;;;-4.26;96.91;101711.66;1785951;79;21375;-56
2020/12/04 02:57:21;;;;;;;17.70;6.90;;;;;;;-4.26;97.07;101717.19;1792887;79;21204;-56
2020/12/04 02:59:49;;;;;;;12.13;5.97;;;;;;;-4.26;97.14;101715.92;1793588;79;21127;-56
2020/12/04 03:02:17;;;;;;;11.08;6.25;;;;;;;-4.24;97.06;101717.98;1789916;78;21159;-55
2020/12/04 03:04:45;;;;;;;13.78;6.58;;;;;;;-4.26;97.10;101717.19;1796687;79;21572;-56
2020/12/04 03:07:13;;;;;;;18.92;7.00;;;;;;;-4.26;97.11;101721.01;1796050;78;21369;-56
2020/12/04 03:09:42;;;;;;;14.63;7.55;;;;;;;-4.26;97.17;101711.66;1792763;79;21085;-56
2020/12/04 03:12:10;;;;;;;13.20;6.55;;;;;;;-4.27;97.16;101716.36;1786952;79;21108;-56
2020/12/04 03:14:40;;;;;;;12.07;6.47;;;;;;;-4.29;97.03;101709.20;1789898;79;21031;-56
2020/12/04 03:17:08;;;;;;;22.58;7.55;;;;;;;-4.31;97.20;101715.25;1781687;79;21129;-56
2020/12/04 03:19:36;;;;;;;16.35;7.80;;;;;;;-4.33;97.19;101710.19;1787412;80;21202;-56
2020/12/04 03:22:04;;;;;;;15.78;8.28;;;;;;;-4.34;97.05;101709.81;1787013;79;21159;-56
2020/12/04 03:24:33;;;;;;;15.72;7.95;;;;;;;-4.36;96.89;101714.11;1785280;79;21125;-56
2020/12/04 03:27:02;;;;;;;19.17;7.95;;;;;;;-4.38;96.87;101704.88;1784715;80;21128;-56
2020/12/04 03:29:30;;;;;;;12.50;6.42;;;;;;;-4.41;96.60;101702.81;1774827;80;21188;-56
2020/12/04 03:31:58;;;;;;;18.82;8.13;;;;;;;-4.42;96.49;101706.70;1787186;79;21211;-57
2020/12/04 03:34:26;;;;;;;15.38;6.60;;;;;;;-4.46;96.42;101704.70;1784082;78;21184;-58
2020/12/04 03:36:56;;;;;;;11.97;6.00;;;;;;;-4.47;96.43;101717.45;1780771;79;21053;-57
2020/12/04 03:39:25;;;;;;;14.60;5.85;;;;;;;-4.48;96.58;101722.16;1786910;78;21080;-57
2020/12/04 03:41:53;;;;;;;13.25;6.67;;;;;;;-4.51;96.58;101718.44;1782632;80;21170;-57
2020/12/04 03:44:21;;;;;;;11.12;5.85;;;;;;;-4.54;96.75;101716.84;1789839;78;21197;-57
2020/12/04 03:46:49;;;;;;;13.45;6.33;;;;;;;-4.53;96.95;101717.67;1783132;79;21096;-57
2020/12/04 03:49:17;;;;;;;13.40;6.85;;;;;;;-4.54;97.00;101721.94;1787852;80;21148;-55
2020/12/04 03:51:45;;;;;;;22.45;11.35;;;;;;;-4.54;96.99;101717.30;1785890;79;21017;-57
2020/12/04 03:54:13;;;;;;;15.45;8.40;;;;;;;-4.56;97.10;101716.05;1788928;78;21152;-57
2020/12/04 03:56:41;;;;;;;14.85;6.25;;;;;;;-4.56;96.84;101710.96;1781327;80;21361;-57
2020/12/04 03:59:10;;;;;;;24.65;6.70;;;;;;;-4.58;96.60;101720.79;1772072;80;21136;-56
2020/12/04 04:01:39;;;;;;;15.55;6.90;;;;;;;-4.62;96.56;101723.05;1787878;80;21156;-57
2020/12/04 04:04:08;;;;;;;15.60;6.87;;;;;;;-4.66;96.60;101718.08;1781456;78;21029;-56
2020/12/04 04:06:36;;;;;;;13.95;7.00;;;;;;;-4.66;96.82;101717.22;1781315;80;21131;-56
2020/12/04 04:09:04;;;;;;;14.55;6.00;;;;;;;-4.66;96.80;101724.44;1788779;78;21203;-57
2020/12/04 04:11:32;;;;;;;14.85;6.53;;;;;;;-4.68;96.93;101721.55;1785892;80;21171;-58
2020/12/04 04:14:01;;;;;;;11.50;5.72;;;;;;;-4.67;97.09;101729.56;1790956;78;21121;-57
2020/12/04 04:16:29;;;;;;;17.37;6.28;;;;;;;-4.69;97.20;101724.53;1788407;79;21112;-57
2020/12/04 04:18:57;;;;;;;13.25;5.85;;;;;;;-4.68;97.31;101722.38;1786485;78;20978;-55
2020/12/04 04:21:25;;;;;;;14.75;6.78;;;;;;;-4.67;97.42;101715.13;1780012;80;21211;-55
2020/12/04 04:23:53;;;;;;;14.95;7.50;;;;;;;-4.66;97.49;101718.49;1784767;78;21125;-55
2020/12/04 04:26:21;;;;;;;20.95;7.65;;;;;;;-4.66;97.58;101720.63;1787917;80;21092;-56
2020/12/04 04:28:50;;;;;;;14.75;6.72;;;;;;;-4.67;97.58;101715.13;1773188;79;21112;-56
2020/12/04 04:31:18;;;;;;;12.78;6.65;;;;;;;-4.68;97.72;101712.64;1788087;79;21158;-58
2020/12/04 04:33:46;;;;;;;13.32;6.15;;;;;;;-4.70;97.90;101708.89;1787377;78;21201;-56
2020/12/04 04:36:14;;;;;;;16.82;8.13;;;;;;;-4.69;98.10;101715.63;1781712;79;21093;-55
2020/12/04 04:38:43;;;;;;;18.57;7.65;;;;;;;-4.70;98.14;101716.52;1776744;79;21013;-56
2020/12/04 04:41:13;;;;;;;13.50;7.30;;;;;;;-4.71;98.12;101719.09;1786538;79;21148;-55
2020/12/04 04:43:41;;;;;;;12.85;6.95;;;;;;;-4.72;98.29;101719.98;1734903;80;21152;-55
2020/12/04 04:46:19;;;;;;;17.85;7.45;;;;;;;-4.74;98.27;101721.28;1786454;80;21179;-55
2020/12/04 04:48:54;;;;;;;15.32;7.35;;;;;;;-4.75;98.21;101718.36;1781226;79;21151;-56
2020/12/04 04:51:24;;;;;;;13.93;7.45;;;;;;;-4.78;98.21;101729.89;1792048;80;21112;-57
2020/12/04 04:53:58;;;;;;;14.68;7.12;;;;;;;-4.79;98.27;101733.33;1783323;78;21442;-57
2020/12/04 04:56:26;;;;;;;13.83;7.00;;;;;;;-4.80;98.51;101731.67;1791526;79;21467;-57
2020/12/04 04:58:54;;;;;;;20.43;10.20;;;;;;;-4.81;98.66;101726.61;1780921;79;21267;-57
2020/12/04 05:01:23;;;;;;;17.62;8.08;;;;;;;-4.81;98.91;101734.25;1785295;80;21184;-58
2020/12/04 05:03:58;;;;;;;17.92;7.75;;;;;;;-4.80;99.04;101732.12;1790685;78;20962;-58
2020/12/04 05:06:34;;;;;;;13.95;7.22;;;;;;;-4.81;99.16;101741.47;1779262;80;21124;-56
2020/12/04 05:09:07;;;;;;;13.48;7.78;;;;;;;-4.80;99.18;101747.38;1784850;78;21240;-56
2020/12/04 05:15:45;;;;;;;16.50;7.53;;;;;;;-4.79;99.16;101735.88;1805103;79;22020;-55
2020/12/04 05:18:19;;;;;;;13.83;7.80;;;;;;;-4.83;99.05;101730.49;1754964;80;20960;-56
2020/12/04 05:20:54;;;;;;;18.20;8.50;;;;;;;-4.86;98.94;101734.39;1735422;82;21379;-56
2020/12/04 05:23:24;;;;;;;15.58;7.65;;;;;;;-4.88;98.75;101742.53;1743814;80;21008;-56
2020/12/04 05:25:53;;;;;;;14.13;7.60;;;;;;;-4.90;98.74;101737.92;1745659;81;21028;-55
2020/12/04 05:28:26;;;;;;;16.87;8.23;;;;;;;-4.91;98.58;101745.98;1732754;80;21006;-56
2020/12/04 05:31:06;;;;;;;15.25;8.55;;;;;;;-4.92;98.52;101743.50;1742258;82;20992;-57
2020/12/04 05:33:36;;;;;;;18.25;9.00;;;;;;;-4.94;98.62;101738.45;1707095;82;21399;-57
2020/12/04 05:36:05;;;;;;;15.93;8.08;;;;;;;-4.95;98.69;101746.97;1744409;82;20944;-56
2020/12/04 05:38:32;;;;;;;24.35;8.18;;;;;;;-4.96;99.12;101751.67;1740386;82;21553;-57
2020/12/04 05:41:08;;;;;;;13.80;7.20;;;;;;;-4.95;99.50;101758.41;1746850;82;21075;-57
2020/12/04 05:43:37;;;;;;;18.98;8.98;;;;;;;-4.92;99.54;101765.13;1737415;80;20968;-56
2020/12/04 05:46:23;;;;;;;17.95;7.80;;;;;;;-4.93;99.57;101757.91;1728300;82;22214;-56
2020/12/04 05:49:09;;;;;;;17.00;7.47;;;;;;;-4.92;99.49;101760.04;1735759;82;21656;-57
2020/12/04 05:51:40;;;;;;;17.25;8.10;;;;;;;-4.93;99.22;101768.52;1745114;82;21163;-56
2020/12/04 05:56:51;;;;;;;19.73;8.53;;;;;;;-4.92;99.28;101777.84;1885004;74;22620;-56
2020/12/04 05:59:21;;;;;;;34.13;15.32;;;;;;;-4.97;99.44;101775.85;1825364;75;20974;-55
2020/12/04 06:01:49;;;;;;;36.28;18.60;;;;;;;-4.95;99.63;101780.02;1821116;77;21315;-55
2020/12/04 06:04:18;;;;;;;21.42;12.13;;;;;;;-4.91;99.71;101782.86;1777963;80;21556;-56
2020/12/04 06:06:48;;;;;;;20.90;9.30;;;;;;;-4.90;99.36;101779.44;1758440;80;20967;-56
2020/12/04 06:09:20;;;;;;;22.70;10.08;;;;;;;-4.91;99.35;101784.58;1744068;80;20967;-56
2020/12/04 06:11:50;;;;;;;16.45;7.60;;;;;;;-4.89;99.63;101787.89;1775370;80;21046;-57
2020/12/04 06:14:20;;;;;;;19.23;10.35;;;;;;;-4.85;99.59;101793.72;1763262;80;21201;-55
2020/12/04 06:17:06;;;;;;;15.90;8.83;;;;;;;-4.85;99.71;101792.01;1786597;79;21502;-54
2020/12/04 06:19:36;;;;;;;16.32;9.33;;;;;;;-4.81;99.68;101809.28;1785545;80;20917;-56
2020/12/04 06:22:17;;;;;;;17.50;7.92;;;;;;;-4.81;99.70;101801.66;1787528;79;21113;-57
2020/12/04 06:25:00;;;;;;;15.63;7.90;;;;;;;-4.83;99.60;101797.89;1768324;80;21085;-56
2020/12/04 06:27:47;;;;;;;19.20;9.23;;;;;;;-4.83;99.62;101808.07;1789516;79;21299;-56
2020/12/04 06:30:18;;;;;;;22.22;8.75;;;;;;;-4.84;99.63;101787.34;1758907;80;21123;-56
2020/12/04 06:32:51;;;;;;;20.48;9.83;;;;;;;-4.86;99.97;101796.70;1760001;80;21018;-56
2020/12/04 06:35:44;;;;;;;19.05;9.70;;;;;;;-4.82;100.00;101785.56;1774331;80;21054;-57
2020/12/04 06:38:39;;;;;;;18.82;9.68;;;;;;;-4.82;100.00;101802.09;1771841;80;21030;-55
2020/12/04 06:41:26;;;;;;;18.50;8.83;;;;;;;-4.81;100.00;101785.98;1759296;80;21210;-57
2020/12/04 06:44:06;;;;;;;22.32;8.75;;;;;;;-4.80;99.98;101796.53;1791833;79;20946;-55
2020/12/04 06:46:41;;;;;;;20.62;8.88;;;;;;;-4.81;100.00;101806.33;1787534;79;21074;-57
2020/12/04 06:52:14;;;;;;;19.50;9.53;;;;;;;-4.74;100.00;101804.41;1787414;79;20988;-57
2020/12/04 06:54:49;;;;;;;18.42;8.93;;;;;;;-4.73;100.00;101797.19;1784939;79;21151;-56
2020/12/04 06:57:19;;;;;;;17.48;7.45;;;;;;;-4.69;100.00;101798.76;1785959;78;21728;-56
2020/12/04 06:59:47;;;;;;;20.70;7.85;;;;;;;-4.67;100.00;101802.06;1783739;80;21591;-56
2020/12/04 07:02:22;;;;;;;20.80;9.15;;;;;;;-4.65;100.00;101804.14;1783574;80;21128;-56
2020/12/04 07:04:52;;;;;;;19.45;9.08;;;;;;;-4.66;100.00;101805.86;1787602;79;21125;-56
2020/12/04 07:07:26;;;;;;;17.32;9.18;;;;;;;-4.64;100.00;101813.42;1785123;79;21264;-55
2020/12/04 07:10:01;;;;;;;20.88;9.03;;;;;;;-4.61;100.00;101808.25;1786633;79;21527;-56
2020/12/04 07:12:31;;;;;;;17.20;8.58;;;;;;;-4.60;100.00;101807.36;1787350;79;21012;-56
2020/12/04 07:14:59;;;;;;;19.98;10.72;;;;;;;-4.59;100.00;101805.64;1788041;78;21002;-56
2020/12/04 07:17:30;;;;;;;19.12;8.85;;;;;;;-4.57;100.00;101807.72;1784664;79;21237;-57
2020/12/04 07:20:01;;;;;;;23.80;11.33;;;;;;;-4.56;100.00;101803.02;1796744;79;21382;-56
2020/12/04 07:22:29;;;;;;;17.80;8.75;;;;;;;-4.54;100.00;101807.63;1785630;80;21124;-56
2020/12/04 07:24:57;;;;;;;19.98;11.08;;;;;;;-4.55;100.00;101803.40;1785480;79;21024;-57
2020/12/04 07:27:29;;;;;;;18.65;9.73;;;;;;;-4.57;100.00;101813.64;1784142;79;21222;-56
2020/12/04 07:29:58;;;;;;;22.93;9.90;;;;;;;-4.56;100.00;101808.10;1793068;79;21081;-56
2020/12/04 07:32:26;;;;;;;14.10;7.72;;;;;;;-4.52;100.00;101811.77;1785346;79;21139;-57
2020/12/04 07:34:54;;;;;;;19.48;10.23;;;;;;;-4.51;100.00;101808.78;1788421;79;21136;-56
2020/12/04 14:20:41;;;;;;;15.03;9.53;;;;;;;-2.71;100.00;101849.66;1890452;74;22293;-58
2020/12/04 14:23:10;;;;;;;16.25;9.73;;;;;;;-2.69;100.00;101843.20;1857116;76;20991;-57
2020/12/04 14:25:39;;;;;;;15.88;8.28;;;;;;;-2.68;100.00;101849.99;1822055;77;21727;-57
2020/12/04 14:28:07;;;;;;;13.93;8.53;;;;;;;-2.67;100.00;101854.65;1794965;78;21053;-56
2020/12/04 14:30:35;;;;;;;14.65;9.05;;;;;;;-2.67;100.00;101860.58;1826100;76;21077;-57
2020/12/04 14:33:03;;;;;;;19.90;9.78;;;;;;;-2.66;100.00;101853.75;1827764;78;21002;-57
2020/12/04 14:35:32;;;;;;;16.73;8.60;;;;;;;-2.67;100.00;101855.48;1821837;77;21012;-56
2020/12/04 14:38:00;;;;;;;19.00;9.73;;;;;;;-2.66;100.00;101855.86;1821973;78;21258;-55
2020/12/04 14:40:29;;;;;;;16.20;9.43;;;;;;;-2.65;100.00;101861.78;1820677;78;20970;-56
2020/12/04 14:43:02;;;;;;;15.53;9.63;;;;;;;-2.66;100.00;101856.30;1769061;78;21061;-57
2020/12/04 14:45:31;;;;;;;14.63;9.08;;;;;;;-2.67;100.00;101850.82;1827090;77;21084;-57
2020/12/04 14:48:00;;;;;;;18.75;10.53;;;;;;;-2.67;100.00;101865.69;1822476;77;20974;-58
2020/12/04 14:50:30;;;;;;;18.10;9.98;;;;;;;-2.67;100.00;101853.38;1825465;77;21547;-57
2020/12/04 14:52:57;;;;;;;21.15;10.32;;;;;;;-2.66;100.00;101849.92;1760561;80;21027;-57
2020/12/04 14:55:26;;;;;;;15.85;9.70;;;;;;;-2.64;100.00;101865.58;1770617;80;20987;-58
2020/12/04 14:57:54;;;;;;;17.45;9.38;;;;;;;-2.63;100.00;101852.36;1804379;78;21166;-58
2020/12/04 15:00:23;;;;;;;16.77;8.55;;;;;;;-2.61;100.00;101856.98;1790233;79;21161;-58
2020/12/04 15:02:53;;;;;;;19.57;10.05;;;;;;;-2.60;100.00;101864.56;1764548;79;21037;-57
2020/12/04 15:05:23;;;;;;;18.55;10.13;;;;;;;-2.58;100.00;101879.81;1773941;79;20980;-57
2020/12/04 15:07:53;;;;;;;15.48;9.63;;;;;;;-2.59;100.00;101872.60;1798722;79;20954;-57
2020/12/04 15:10:22;;;;;;;18.67;9.28;;;;;;;-2.58;100.00;101878.53;1783145;79;21090;-56
2020/12/04 15:12:51;;;;;;;16.23;9.40;;;;;;;-2.59;100.00;101875.16;1777244;79;21164;-57
2020/12/04 15:15:19;;;;;;;17.92;9.33;;;;;;;-2.58;100.00;101874.70;1757578;80;21201;-57
2020/12/04 15:17:47;;;;;;;14.68;8.83;;;;;;;-2.57;100.00;101881.05;1768802;80;20985;-57
2020/12/04 15:20:15;;;;;;;17.75;10.60;;;;;;;-2.57;100.00;101873.84;1777978;80;21158;-56
2020/12/04 15:22:44;;;;;;;18.57;10.35;;;;;;;-2.57;100.00;101875.12;1778627;80;21025;-56
2020/12/04 15:25:13;;;;;;;19.17;10.32;;;;;;;-2.57;100.00;101863.63;1786162;80;21049;-54
2020/12/04 15:27:41;;;;;;;19.45;10.68;;;;;;;-2.56;100.00;101862.73;1772771;80;21428;-55
2020/12/04 15:30:09;;;;;;;21.77;10.90;;;;;;;-2.56;100.00;101877.59;1764366;79;20998;-55
2020/12/04 15:32:37;;;;;;;16.45;10.03;;;;;;;-2.56;100.00;101875.49;1766038;79;21129;-56
2020/12/04 15:35:06;;;;;;;18.85;9.03;;;;;;;-2.57;100.00;101866.18;1766522;79;21152;-54
2020/12/04 15:37:34;;;;;;;15.93;9.33;;;;;;;-2.59;100.00;101879.44;1766529;79;21644;-57
2020/12/04 15:40:03;;;;;;;17.02;9.33;;;;;;;-2.61;100.00;101894.83;1763843;81;21285;-56
2020/12/04 15:42:31;;;;;;;17.45;8.73;;;;;;;-2.63;100.00;101868.50;1766639;79;21190;-58
2020/12/04 15:45:00;;;;;;;16.27;9.08;;;;;;;-2.64;100.00;101871.95;1775797;79;21038;-57
2020/12/04 15:47:28;;;;;;;18.90;11.85;;;;;;;-2.64;100.00;101877.06;1772450;80;21095;-57
2020/12/04 15:49:56;;;;;;;17.90;10.08;;;;;;;-2.63;100.00;101871.51;1792523;79;21105;-56
2020/12/04 15:52:25;;;;;;;16.40;8.73;;;;;;;-2.63;100.00;101881.72;1779952;78;21283;-56
2020/12/04 15:54:53;;;;;;;22.20;12.58;;;;;;;-2.64;100.00;101894.94;1769613;79;21123;-55
2020/12/04 15:57:21;;;;;;;24.25;10.60;;;;;;;-2.64;100.00;101890.27;1763845;79;21046;-55
2020/12/04 15:59:49;;;;;;;16.30;8.98;;;;;;;-2.66;100.00;101890.77;1773228;79;21101;-56
2020/12/04 16:02:17;;;;;;;15.23;9.05;;;;;;;-2.66;100.00;101893.31;1768061;80;21071;-55
2020/12/04 16:04:47;;;;;;;17.48;10.03;;;;;;;-2.68;100.00;101879.34;1762477;80;21206;-54
2020/12/04 16:07:15;;;;;;;15.15;8.13;;;;;;;-2.67;100.00;101889.11;1756565;80;21177;-56
2020/12/04 16:09:44;;;;;;;22.82;10.82;;;;;;;-2.67;100.00;101884.00;1798682;79;21034;-55
2020/12/04 16:12:13;;;;;;;18.80;10.48;;;;;;;-2.65;100.00;101891.14;1771711;79;21033;-56
2020/12/04 16:14:41;;;;;;;19.42;9.60;;;;;;;-2.66;100.00;101896.70;1767529;80;21032;-56
2020/12/04 16:17:09;;;;;;;18.80;10.10;;;;;;;-2.65;100.00;101888.59;1755405;80;21206;-56
2020/12/04 16:19:37;;;;;;;14.50;9.25;;;;;;;-2.65;100.00;101893.27;1789893;79;21064;-56
2020/12/04 16:22:06;;;;;;;15.83;8.30;;;;;;;-2.62;100.00;101893.59;1783296;79;21156;-57
2020/12/04 16:24:34;;;;;;;14.18;8.43;;;;;;;-2.61;100.00;101908.03;1789614;79;21050;-56
2020/12/04 16:27:02;;;;;;;19.82;9.93;;;;;;;-2.60;100.00;101893.92;1786540;79;21146;-56
2020/12/04 16:29:30;;;;;;;19.27;10.35;;;;;;;-2.60;100.00;101896.92;1785297;80;21355;-56
2020/12/04 16:31:58;;;;;;;14.63;7.55;;;;;;;-2.60;100.00;101904.14;1786738;80;21147;-55
2020/12/04 16:34:27;;;;;;;13.88;8.73;;;;;;;-2.58;100.00;101909.17;1787671;79;21009;-55
2020/12/04 16:36:58;;;;;;;17.95;8.75;;;;;;;-2.58;100.00;101907.45;1768796;80;21042;-56
2020/12/04 16:39:26;;;;;;;17.02;7.42;;;;;;;-2.56;100.00;101897.20;1755972;80;21058;-56
2020/12/04 16:41:54;;;;;;;16.55;8.03;;;;;;;-2.55;100.00;101914.99;1786208;78;21219;-58
2020/12/04 16:44:22;;;;;;;12.78;6.92;;;;;;;-2.53;100.00;101900.91;1788897;78;20953;-57
2020/12/04 16:46:51;;;;;;;16.73;8.65;;;;;;;-2.52;100.00;101906.40;1787195;79;21049;-57
2020/12/04 16:49:21;;;;;;;14.80;7.60;;;;;;;-2.50;100.00;101916.95;1784809;79;21081;-57
2020/12/04 16:51:52;;;;;;;15.50;8.48;;;;;;;-2.47;100.00;101907.05;1784959;79;21152;-57
2020/12/04 16:54:20;;;;;;;15.65;8.03;;;;;;;-2.45;100.00;101912.94;1787237;79;21266;-56
2020/12/04 16:56:49;;;;;;;13.38;7.42;;;;;;;-2.45;100.00;101916.32;1789508;79;21169;-56
2020/12/04 16:59:17;;;;;;;14.93;8.88;;;;;;;-2.46;100.00;101903.17;1759790;80;21020;-56
2020/12/04 17:01:46;;;;;;;14.58;8.38;;;;;;;-2.47;100.00;101892.55;1776934;80;21595;-56
2020/12/04 17:04:15;;;;;;;11.63;6.75;;;;;;;-2.46;99.81;101901.06;1781360;79;21215;-56
2020/12/04 17:06:43;;;;;;;10.85;5.85;;;;;;;-2.47;99.40;101902.77;1757517;80;21640;-57
2020/12/04 17:09:12;;;;;;;14.50;8.18;;;;;;;-2.46;99.09;101904.90;1756694;80;21204;-56
2020/12/04 17:11:40;;;;;;;16.00;7.30;;;;;;;-2.46;98.70;101907.00;1761093;80;21062;-57
2020/12/04 17:14:08;;;;;;;19.67;7.30;;;;;;;-2.45;98.25;101897.62;1783186;79;21117;-55
2020/12/04 17:16:36;;;;;;;12.85;6.83;;;;;;;-2.44;97.94;101901.83;1785732;79;21133;-57
2020/12/04 17:19:04;;;;;;;13.32;6.53;;;;;;;-2.43;97.79;101897.09;1784700;79;21190;-57
2020/12/04 17:21:32;;;;;;;13.62;7.30;;;;;;;-2.41;97.50;101891.95;1786699;79;21527;-56
2020/12/04 17:24:01;;;;;;;13.88;6.70;;;;;;;-2.40;96.95;101896.98;1784041;79;21144;-56
2020/12/04 17:26:29;;;;;;;11.15;6.58;;;;;;;-2.41;96.49;101911.93;1785192;79;21425;-56
2020/12/04 17:28:59;;;;;;;12.45;6.95;;;;;;;-2.41;95.99;101906.82;1785357;79;21109;-55
2020/12/04 17:31:27;;;;;;;15.25;8.05;;;;;;;-2.41;95.63;101922.59;1786720;79;21431;-55
2020/12/04 17:33:55;;;;;;;19.57;8.48;;;;;;;-2.41;95.04;101913.20;1785865;79;21133;-56
2020/12/04 17:36:23;;;;;;;15.85;7.40;;;;;;;-2.42;94.46;101907.72;1784502;80;21547;-56
2020/12/04 17:38:51;;;;;;;12.60;6.87;;;;;;;-2.42;94.08;101922.18;1784900;79;21077;-56
2020/12/04 17:41:19;;;;;;;13.45;7.30;;;;;;;-2.43;93.40;101929.02;1785161;79;21092;-57
2020/12/04 17:43:47;;;;;;;11.70;6.70;;;;;;;-2.42;92.91;101924.73;1783797;79;21207;-56
2020/12/04 17:46:15;;;;;;;11.28;5.95;;;;;;;-2.42;92.35;101919.21;1784462;79;21077;-57
2020/12/04 17:48:44;;;;;;;11.03;5.33;;;;;;;-2.43;92.01;101912.42;1784012;80;21443;-56
2020/12/04 17:51:12;;;;;;;12.07;6.00;;;;;;;-2.44;91.29;101919.70;1795456;79;21085;-57
2020/12/04 17:53:40;;;;;;;14.50;6.53;;;;;;;-2.45;90.52;101905.28;1788572;79;21120;-58
2020/12/04 17:56:08;;;;;;;14.40;6.22;;;;;;;-2.46;90.37;101926.16;1788727;79;22094;-56
2020/12/04 17:58:37;;;;;;;15.13;6.60;;;;;;;-2.47;90.30;101904.49;1783640;79;21164;-57
2020/12/04 18:01:08;;;;;;;12.15;6.90;;;;;;;-2.47;90.23;101914.25;1784109;79;21034;-56
2020/12/04 18:03:36;;;;;;;12.15;6.05;;;;;;;-2.48;90.00;101905.39;1786934;79;21166;-57
2020/12/04 18:06:04;;;;;;;13.40;6.45;;;;;;;-2.48;90.21;101911.33;1782978;79;21197;-57
2020/12/04 18:08:32;;;;;;;12.30;6.05;;;;;;;-2.48;90.23;101904.11;1791901;79;21199;-57
2020/12/04 18:11:01;;;;;;;10.95;5.70;;;;;;;-2.48;90.35;101907.94;1785538;79;21142;-56
2020/12/04 18:13:29;;;;;;;11.03;6.30;;;;;;;-2.49;89.94;101903.73;1789524;79;21098;-57
2020/12/04 18:15:58;;;;;;;12.30;6.40;;;;;;;-2.50;89.82;101908.43;1783007;79;21170;-56
2020/12/04 18:18:28;;;;;;;16.40;6.35;;;;;;;-2.52;89.85;101919.16;1787416;79;21165;-57